Time;durP1;ratioP1;P1;durP2;ratioP2;P2;SDS_P1;SDS_P2;PMS_P1;PMS_P2;Temp;Humidity;BMP_temperature;BMP_pressure;BME280_temperature;BME280_humidity;BME280_pressure;Samples;Min_cycle;Max_cycle;Signal;HPM_P1;HPM_P2
2021/06/04 00:02:05;;;;;;;1.55;1.48;;;16.40;73.70;;;;;;5048588;28;20196;-72
2021/06/04 00:04:31;;;;;;;1.92;1.88;;;16.40;73.40;;;;;;5054771;28;20202;-73
2021/06/04 00:06:57;;;;;;;1.73;1.70;;;16.30;73.80;;;;;;5049430;28;20262;-72
2021/06/04 00:09:23;;;;;;;1.83;1.73;;;16.30;74.00;;;;;;5040319;28;20672;-72
2021/06/04 00:11:52;;;;;;;1.73;1.52;;;16.30;74.20;;;;;;5048173;28;20203;-73
2021/06/04 00:14:34;;;;;;;1.90;1.80;;;16.30;73.90;;;;;;5047884;28;20569;-72
2021/06/04 00:17:04;;;;;;;1.92;1.92;;;16.20;74.00;;;;;;5048597;28;20190;-72
2021/06/04 00:19:32;;;;;;;1.73;1.67;;;16.20;74.30;;;;;;5047420;28;20270;-72
2021/06/04 00:22:09;;;;;;;1.85;1.77;;;16.20;73.80;;;;;;5043096;28;20716;-72
2021/06/04 00:24:38;;;;;;;1.73;1.67;;;16.20;73.80;;;;;;5047659;28;20184;-72
2021/06/04 00:27:06;;;;;;;1.83;1.73;;;16.20;73.40;;;;;;5047438;28;20613;-72
2021/06/04 00:29:31;;;;;;;2.13;2.03;;;16.20;73.70;;;;;;5047142;28;20215;-72
2021/06/04 00:31:58;;;;;;;1.98;1.90;;;16.10;73.60;;;;;;5051564;28;20181;-72
2021/06/04 00:34:25;;;;;;;4.53;1.95;;;16.10;73.50;;;;;;5046971;28;20187;-72
2021/06/04 00:36:52;;;;;;;3.95;2.20;;;16.00;73.50;;;;;;5047918;28;20172;-72
2021/06/04 00:39:21;;;;;;;1.40;1.40;;;16.00;73.70;;;;;;5047661;28;20188;-72
2021/06/04 00:41:58;;;;;;;4.03;1.98;;;16.00;73.60;;;;;;5047919;28;20233;-72
2021/06/04 00:44:25;;;;;;;2.50;2.40;;;16.00;73.60;;;;;;5050148;28;20199;-72
2021/06/04 00:46:51;;;;;;;2.45;2.30;;;15.90;73.90;;;;;;5053952;28;20228;-72
2021/06/04 00:49:17;;;;;;;2.70;2.50;;;15.90;73.80;;;;;;5054823;28;20715;-72
2021/06/04 00:52:17;;;;;;;2.60;2.50;;;15.90;74.10;;;;;;5047624;28;20264;-73
2021/06/04 00:54:44;;;;;;;2.65;2.42;;;15.80;74.30;;;;;;5036167;28;20259;-72
2021/06/04 00:57:11;;;;;;;2.63;2.45;;;15.80;74.30;;;;;;5033797;28;20789;-73
2021/06/04 00:59:38;;;;;;;2.58;2.38;;;15.80;74.40;;;;;;5044568;28;20199;-72
2021/06/04 01:02:17;;;;;;;7.43;2.50;;;15.70;74.40;;;;;;5042659;28;20183;-73
2021/06/04 01:04:45;;;;;;;5.00;2.38;;;15.70;74.50;;;;;;5044294;28;20637;-73
2021/06/04 01:07:21;;;;;;;3.55;2.88;;;15.70;74.80;;;;;;5042521;28;20190;-72
2021/06/04 01:10:07;;;;;;;2.88;2.67;;;15.60;74.60;;;;;;5043934;28;20211;-73
2021/06/04 01:12:57;;;;;;;4.78;2.90;;;15.60;74.80;;;;;;5044483;28;20755;-72
2021/06/04 01:15:36;;;;;;;5.05;3.05;;;15.50;74.80;;;;;;5037867;28;20202;-72
2021/06/04 01:18:37;;;;;;;5.85;2.95;;;15.50;74.80;;;;;;5041228;28;20188;-72
2021/06/04 01:21:11;;;;;;;3.17;2.65;;;15.50;75.00;;;;;;4965747;28;20198;-72
2021/06/04 01:24:03;;;;;;;4.47;2.63;;;15.40;75.20;;;;;;4966146;28;20209;-73
2021/06/04 01:26:31;;;;;;;4.03;2.50;;;15.40;75.00;;;;;;4946486;28;20643;-72
2021/06/04 01:29:04;;;;;;;2.88;2.63;;;15.40;75.10;;;;;;4946090;28;20235;-73
2021/06/04 01:31:33;;;;;;;2.78;2.58;;;15.40;75.00;;;;;;4947026;28;20202;-73
2021/06/04 01:34:07;;;;;;;2.75;2.55;;;15.40;74.90;;;;;;4947026;28;20733;-73
2021/06/04 01:36:42;;;;;;;3.83;3.05;;;15.30;74.80;;;;;;4946317;29;21252;-73
2021/06/04 01:39:17;;;;;;;3.83;2.90;;;15.30;74.80;;;;;;4947050;29;20306;-73
2021/06/04 01:41:45;;;;;;;2.80;2.67;;;15.30;74.80;;;;;;4929413;28;20186;-72
2021/06/04 01:44:17;;;;;;;3.47;2.33;;;15.30;74.90;;;;;;4946781;28;20183;-73
2021/06/04 01:46:48;;;;;;;4.60;3.40;;;15.30;75.00;;;;;;4948746;28;20784;-72
2021/06/04 01:49:25;;;;;;;4.55;2.70;;;15.30;74.90;;;;;;4950392;29;20223;-73
2021/06/04 01:52:26;;;;;;;3.50;3.25;;;15.30;75.00;;;;;;4950699;28;20683;-73
2021/06/04 01:55:08;;;;;;;7.15;2.88;;;15.20;75.20;;;;;;4923863;29;20655;-73
2021/06/04 01:57:42;;;;;;;3.35;2.75;;;15.20;74.90;;;;;;4951164;28;20202;-73
2021/06/04 02:00:22;;;;;;;2.60;2.40;;;15.20;74.90;;;;;;4967672;28;20710;-73
2021/06/04 02:02:48;;;;;;;15.82;3.25;;;15.20;74.90;;;;;;4977305;28;20192;-72
2021/06/04 02:05:18;;;;;;;2.38;2.28;;;15.10;75.30;;;;;;5008370;28;20208;-72
2021/06/04 02:07:44;;;;;;;3.45;2.88;;;15.10;75.10;;;;;;5008422;28;20193;-72
2021/06/04 02:10:16;;;;;;;4.57;2.70;;;15.10;75.10;;;;;;5007839;28;20189;-72
2021/06/04 02:12:42;;;;;;;3.15;2.60;;;15.10;75.10;;;;;;4991196;28;20693;-72
2021/06/04 02:15:22;;;;;;;2.20;2.10;;;15.00;75.10;;;;;;5006993;28;20266;-73
2021/06/04 02:18:01;;;;;;;2.53;2.40;;;15.00;74.90;;;;;;5010164;28;20208;-72
2021/06/04 02:20:48;;;;;;;2.58;2.17;;;15.00;74.80;;;;;;5000147;28;20189;-72
2021/06/04 02:23:28;;;;;;;8.38;2.38;;;15.00;74.90;;;;;;5007997;28;20181;-72
2021/06/04 02:26:04;;;;;;;2.10;2.00;;;15.00;74.70;;;;;;5006879;28;20770;-74
2021/06/04 02:28:30;;;;;;;2.17;2.17;;;15.00;74.80;;;;;;5003325;28;20216;-74
2021/06/04 02:31:27;;;;;;;4.20;2.22;;;15.00;74.80;;;;;;5028079;28;20190;-74
2021/06/04 02:34:01;;;;;;;2.45;2.13;;;15.00;74.60;;;;;;5027274;28;20752;-74
2021/06/04 02:36:32;;;;;;;2.00;1.90;;;15.00;74.60;;;;;;5025726;28;20188;-73
2021/06/04 02:39:27;;;;;;;2.03;1.85;;;15.00;74.60;;;;;;5027055;28;20224;-73
2021/06/04 02:42:19;;;;;;;1.80;1.80;;;15.00;74.60;;;;;;5019092;28;20219;-74
2021/06/04 02:44:53;;;;;;;1.92;1.92;;;15.00;74.60;;;;;;5026324;28;20200;-74
2021/06/04 02:47:31;;;;;;;1.83;1.73;;;15.00;74.70;;;;;;5026546;28;20191;-74
2021/06/04 02:50:06;;;;;;;1.75;1.75;;;15.00;74.70;;;;;;5027402;28;20216;-74
2021/06/04 02:52:50;;;;;;;1.80;1.77;;;15.00;74.70;;;;;;5026833;28;20220;-74
2021/06/04 02:55:28;;;;;;;2.28;2.08;;;15.00;74.60;;;;;;5026382;28;20195;-75
2021/06/04 02:57:55;;;;;;;2.20;2.10;;;15.00;74.50;;;;;;5008224;28;20730;-73
2021/06/04 03:00:38;;;;;;;2.15;2.15;;;15.00;74.60;;;;;;5025552;28;20227;-75
2021/06/04 03:03:04;;;;;;;2.92;2.17;;;15.00;74.80;;;;;;5025806;28;20935;-75
2021/06/04 03:05:34;;;;;;;2.10;1.92;;;15.00;74.70;;;;;;5025009;28;20219;-75
2021/06/04 03:08:00;;;;;;;2.03;1.95;;;15.00;75.10;;;;;;5025774;28;20680;-75
2021/06/04 03:10:39;;;;;;;2.63;2.42;;;15.00;75.30;;;;;;5033978;28;20700;-73
2021/06/04 03:13:08;;;;;;;1.75;1.65;;;15.00;75.60;;;;;;5047104;28;20587;-75
2021/06/04 03:15:41;;;;;;;2.38;2.28;;;15.00;75.60;;;;;;5048450;28;20210;-75
2021/06/04 03:18:10;;;;;;;2.45;1.70;;;15.00;74.40;;;;;;5049193;28;20183;-74
2021/06/04 03:20:41;;;;;;;2.83;2.55;;;15.00;74.00;;;;;;5048955;28;20175;-74
2021/06/04 03:23:09;;;;;;;4.47;2.05;;;15.00;74.00;;;;;;5048775;28;20572;-75
2021/06/04 03:25:39;;;;;;;1.70;1.58;;;14.90;73.90;;;;;;5047576;28;20187;-74
2021/06/04 03:28:08;;;;;;;1.73;1.63;;;15.00;73.80;;;;;;5048239;28;20249;-74
2021/06/04 03:30:38;;;;;;;1.83;1.73;;;15.00;73.80;;;;;;5053062;28;20183;-74
2021/06/04 03:33:05;;;;;;;1.98;1.88;;;15.00;73.80;;;;;;5048124;28;20184;-74
2021/06/04 03:35:31;;;;;;;1.73;1.70;;;14.90;73.70;;;;;;5049246;28;20187;-74
2021/06/04 03:37:58;;;;;;;1.75;1.75;;;14.90;73.50;;;;;;5047648;28;20192;-74
2021/06/04 03:40:27;;;;;;;2.45;2.15;;;14.90;73.40;;;;;;5053792;28;20188;-74
2021/06/04 03:42:55;;;;;;;1.42;1.42;;;15.00;73.50;;;;;;5048048;28;20179;-74
2021/06/04 03:45:25;;;;;;;1.73;1.63;;;15.00;73.40;;;;;;5053619;28;20249;-74
2021/06/04 03:47:51;;;;;;;1.52;1.52;;;15.00;73.40;;;;;;5051208;28;20195;-74
2021/06/04 03:50:17;;;;;;;2.08;1.52;;;15.00;73.40;;;;;;5051318;28;20210;-74
2021/06/04 03:52:43;;;;;;;1.77;1.67;;;15.00;73.30;;;;;;5052667;28;20283;-74
2021/06/04 03:55:10;;;;;;;1.98;1.88;;;15.00;73.20;;;;;;5057646;28;20178;-74
2021/06/04 03:57:37;;;;;;;5.88;1.98;;;15.00;73.20;;;;;;5047978;28;20186;-74
2021/06/04 04:00:17;;;;;;;2.15;2.05;;;15.10;73.30;;;;;;5048659;28;20222;-74
2021/06/04 04:02:43;;;;;;;3.15;1.80;;;15.00;73.30;;;;;;5048660;28;20199;-74
2021/06/04 04:05:09;;;;;;;3.00;1.77;;;15.10;73.40;;;;;;5049097;28;20241;-74
2021/06/04 04:07:38;;;;;;;1.73;1.67;;;15.10;73.40;;;;;;5043514;28;20192;-74
2021/06/04 04:10:06;;;;;;;7.63;2.08;;;15.10;73.50;;;;;;5045992;28;20276;-73
2021/06/04 04:12:32;;;;;;;1.77;1.77;;;15.10;73.50;;;;;;5048151;28;20204;-74
2021/06/04 04:14:57;;;;;;;2.40;2.00;;;15.20;73.50;;;;;;5050422;28;20222;-73
2021/06/04 04:17:23;;;;;;;1.95;1.85;;;15.20;73.30;;;;;;5049488;28;20182;-73
2021/06/04 04:19:49;;;;;;;1.83;1.83;;;15.30;73.20;;;;;;5047246;28;20187;-73
2021/06/04 04:22:15;;;;;;;1.90;1.80;;;15.30;73.20;;;;;;5047809;28;20203;-75
2021/06/04 04:24:41;;;;;;;2.25;2.15;;;15.30;73.10;;;;;;5048441;28;20233;-73
2021/06/04 04:27:09;;;;;;;3.22;1.92;;;15.40;73.10;;;;;;5048965;28;20183;-74
2021/06/04 04:29:35;;;;;;;2.03;1.92;;;15.40;73.00;;;;;;5051088;28;20215;-74
2021/06/04 04:32:05;;;;;;;3.90;1.92;;;15.50;73.00;;;;;;5048135;28;20171;-73
2021/06/04 04:34:32;;;;;;;4.30;2.10;;;15.50;72.80;;;;;;5053984;28;20176;-73
2021/06/04 04:37:02;;;;;;;2.28;2.13;;;15.50;72.90;;;;;;5047607;28;20186;-73
2021/06/04 04:39:35;;;;;;;1.83;1.80;;;15.60;72.90;;;;;;5056049;28;20195;-73
2021/06/04 04:42:02;;;;;;;2.60;2.50;;;15.60;72.60;;;;;;5048948;28;20675;-73
2021/06/04 04:44:32;;;;;;;1.88;1.77;;;15.60;72.60;;;;;;5043039;28;20581;-72
2021/06/04 04:46:58;;;;;;;2.55;1.92;;;15.70;72.50;;;;;;5042939;28;20184;-72
2021/06/04 04:49:24;;;;;;;2.20;2.10;;;15.70;72.50;;;;;;5047679;28;20777;-73
2021/06/04 04:51:50;;;;;;;1.73;1.73;;;15.70;72.50;;;;;;5051245;28;20211;-71
2021/06/04 04:54:17;;;;;;;2.30;1.65;;;15.80;72.40;;;;;;5056654;28;20273;-72
2021/06/04 04:56:43;;;;;;;3.75;2.35;;;15.80;72.30;;;;;;5053698;28;20672;-70
2021/06/04 04:59:10;;;;;;;1.90;1.85;;;15.80;72.50;;;;;;5056945;28;20631;-71
2021/06/04 05:01:36;;;;;;;2.90;2.38;;;15.90;73.00;;;;;;5046045;28;20187;-69
2021/06/04 05:04:02;;;;;;;2.20;2.10;;;15.90;72.60;;;;;;5044826;28;20198;-70
2021/06/04 05:06:28;;;;;;;5.18;2.20;;;16.00;72.30;;;;;;5046245;28;20747;-69
2021/06/04 05:08:54;;;;;;;2.33;2.17;;;16.00;72.30;;;;;;5039815;28;20215;-72
2021/06/04 05:11:20;;;;;;;3.25;2.42;;;16.10;72.40;;;;;;5045959;28;20187;-71
2021/06/04 05:13:46;;;;;;;2.63;2.42;;;16.10;72.40;;;;;;5047748;28;20274;-72
2021/06/04 05:16:11;;;;;;;2.13;2.10;;;16.20;72.50;;;;;;5047244;28;20249;-72
2021/06/04 05:18:38;;;;;;;2.55;2.05;;;16.30;72.20;;;;;;5047968;28;20265;-74
2021/06/04 05:21:07;;;;;;;2.42;2.25;;;16.30;72.00;;;;;;5056673;28;20191;-75
2021/06/04 05:23:33;;;;;;;3.25;1.85;;;16.40;72.10;;;;;;5059618;28;20188;-73
2021/06/04 05:25:59;;;;;;;2.28;2.17;;;16.50;72.00;;;;;;5058309;28;20218;-73
2021/06/04 05:28:27;;;;;;;2.30;2.20;;;16.50;72.00;;;;;;5051708;28;20243;-76
2021/06/04 05:30:57;;;;;;;2.75;2.55;;;16.60;71.80;;;;;;5056252;28;20186;-76
2021/06/04 05:33:31;;;;;;;2.65;2.40;;;16.70;71.60;;;;;;5055073;28;20660;-75
2021/06/04 05:35:57;;;;;;;2.60;2.50;;;16.80;71.50;;;;;;5054668;28;20572;-73
2021/06/04 05:38:23;;;;;;;2.97;2.33;;;16.90;71.20;;;;;;5053119;28;20194;-74
2021/06/04 05:40:49;;;;;;;2.50;2.40;;;16.90;71.20;;;;;;5047549;28;20180;-76
2021/06/04 05:43:22;;;;;;;2.47;2.38;;;16.90;70.90;;;;;;5047841;28;20688;-75
2021/06/04 05:45:48;;;;;;;1.90;1.90;;;16.90;69.50;;;;;;5057719;28;20210;-75
2021/06/04 05:48:16;;;;;;;1.90;1.90;;;16.80;69.50;;;;;;5062821;28;20250;-75
2021/06/04 05:50:45;;;;;;;6.57;1.95;;;16.80;69.70;;;;;;5059958;28;20179;-75
2021/06/04 05:53:13;;;;;;;6.85;1.90;;;16.80;69.30;;;;;;5060712;28;20211;-75
2021/06/04 05:55:40;;;;;;;1.75;1.55;;;16.80;68.90;;;;;;5062796;28;20168;-76
2021/06/04 05:58:08;;;;;;;2.13;1.80;;;16.80;69.10;;;;;;5056902;28;20179;-73
2021/06/04 06:00:40;;;;;;;2.03;1.92;;;16.70;69.30;;;;;;5049572;28;20192;-72
2021/06/04 06:03:06;;;;;;;2.65;1.95;;;16.70;69.20;;;;;;5050405;28;20176;-73
2021/06/04 06:05:32;;;;;;;3.42;1.60;;;16.60;69.00;;;;;;5049812;28;20186;-72
2021/06/04 06:07:58;;;;;;;3.08;1.95;;;16.60;69.10;;;;;;5049958;28;20695;-73
2021/06/04 06:10:25;;;;;;;1.67;1.63;;;16.60;69.90;;;;;;5049940;28;20270;-74
2021/06/04 06:12:52;;;;;;;1.90;1.75;;;16.60;69.40;;;;;;5049727;28;20306;-73
2021/06/04 06:15:19;;;;;;;1.70;1.63;;;16.60;69.40;;;;;;5049000;28;20215;-74
2021/06/04 06:17:45;;;;;;;2.33;2.10;;;16.60;69.60;;;;;;5050042;28;20233;-74
2021/06/04 06:20:13;;;;;;;3.40;1.83;;;16.60;69.50;;;;;;5049278;28;20245;-74
2021/06/04 06:22:40;;;;;;;4.03;1.80;;;16.60;69.60;;;;;;5049197;28;20237;-74
2021/06/04 06:25:09;;;;;;;1.45;1.35;;;16.60;69.90;;;;;;5049423;28;20175;-73
2021/06/04 06:27:35;;;;;;;1.92;1.58;;;16.60;70.20;;;;;;5050913;28;20259;-74
2021/06/04 06:30:01;;;;;;;1.80;1.70;;;16.70;70.40;;;;;;5051982;28;20652;-74
2021/06/04 06:32:27;;;;;;;3.33;1.50;;;16.70;70.30;;;;;;5051009;28;20183;-74
2021/06/04 06:34:52;;;;;;;1.75;1.75;;;16.70;70.20;;;;;;5050593;28;20179;-73
2021/06/04 06:37:18;;;;;;;1.88;1.77;;;16.70;70.40;;;;;;5048998;28;20175;-73
2021/06/04 06:39:44;;;;;;;2.15;1.80;;;16.80;70.70;;;;;;5048658;28;20621;-73
2021/06/04 06:42:10;;;;;;;1.80;1.70;;;16.90;70.90;;;;;;5050647;28;20549;-72
2021/06/04 06:44:36;;;;;;;4.65;1.80;;;16.90;70.80;;;;;;5050592;28;20263;-71
2021/06/04 06:47:03;;;;;;;3.33;1.83;;;17.00;70.80;;;;;;5052250;28;20726;-74
2021/06/04 06:49:28;;;;;;;2.03;1.90;;;17.00;70.50;;;;;;5036072;28;20219;-73
2021/06/04 06:51:55;;;;;;;1.65;1.65;;;17.00;70.50;;;;;;5048495;28;20195;-73
2021/06/04 06:54:24;;;;;;;5.43;1.80;;;17.10;70.20;;;;;;5048499;28;20187;-73
2021/06/04 06:56:52;;;;;;;2.13;1.48;;;17.10;70.40;;;;;;5045288;28;20183;-73
2021/06/04 06:59:21;;;;;;;1.55;1.48;;;17.20;70.40;;;;;;5047879;28;20183;-73
2021/06/04 07:01:47;;;;;;;2.03;1.83;;;17.20;71.00;;;;;;5047948;28;20241;-73
2021/06/04 07:04:12;;;;;;;1.58;1.55;;;17.30;71.00;;;;;;5048000;28;20652;-73
2021/06/04 07:09:24;;;;;;;1.42;1.33;;;17.40;70.60;;;;;;5040870;28;20280;-72
2021/06/04 07:11:54;;;;;;;4.50;1.85;;;17.40;70.40;;;;;;5048269;28;20554;-72
2021/06/04 07:14:26;;;;;;;6.78;1.98;;;17.50;70.60;;;;;;5048411;28;20191;-73
2021/06/04 07:16:53;;;;;;;2.30;2.20;;;17.50;70.80;;;;;;5045178;28;20183;-73
2021/06/04 07:19:20;;;;;;;2.13;2.03;;;17.60;71.10;;;;;;5046422;28;20222;-73
2021/06/04 07:21:46;;;;;;;6.72;2.05;;;17.70;71.50;;;;;;5048721;28;20853;-72
2021/06/04 07:24:13;;;;;;;3.70;2.25;;;17.70;71.30;;;;;;5047667;28;20183;-75
2021/06/04 07:26:44;;;;;;;1.92;1.83;;;17.80;71.30;;;;;;5048091;28;20266;-73
2021/06/04 07:29:10;;;;;;;1.92;1.85;;;17.80;71.10;;;;;;5046692;28;20214;-74
2021/06/04 07:31:37;;;;;;;2.05;1.95;;;17.90;71.10;;;;;;5047882;28;20218;-73
2021/06/04 07:34:05;;;;;;;6.55;2.25;;;17.90;71.10;;;;;;5047622;28;20191;-74
2021/06/04 07:36:37;;;;;;;1.90;1.80;;;18.00;71.00;;;;;;5048093;28;20189;-74
2021/06/04 07:39:06;;;;;;;2.55;1.80;;;18.00;70.80;;;;;;5047612;28;20199;-73
2021/06/04 07:41:32;;;;;;;2.25;1.38;;;18.10;70.20;;;;;;5047723;28;20210;-73
2021/06/04 07:43:58;;;;;;;4.88;1.85;;;18.10;70.30;;;;;;5047366;28;20210;-74
2021/06/04 07:46:24;;;;;;;1.65;1.58;;;18.20;70.10;;;;;;5047425;28;20245;-74
2021/06/04 07:48:53;;;;;;;3.72;1.95;;;18.20;69.90;;;;;;5047484;28;20257;-73
2021/06/04 07:51:23;;;;;;;1.35;1.35;;;18.30;70.00;;;;;;5048174;28;20247;-73
2021/06/04 07:53:48;;;;;;;2.45;1.80;;;18.40;69.40;;;;;;5047304;28;20172;-73
2021/06/04 07:56:16;;;;;;;2.38;1.70;;;18.50;69.10;;;;;;5047788;28;20817;-76
2021/06/04 07:58:42;;;;;;;2.35;1.70;;;18.60;69.20;;;;;;5047810;28;20184;-73
2021/06/04 08:01:08;;;;;;;1.83;1.77;;;18.60;69.50;;;;;;5045842;28;20176;-74
2021/06/04 08:03:35;;;;;;;1.63;1.58;;;18.70;69.50;;;;;;5045491;28;20229;-74
2021/06/04 08:06:02;;;;;;;1.80;1.70;;;18.90;69.20;;;;;;5051862;28;20578;-74
2021/06/04 08:08:29;;;;;;;1.70;1.60;;;19.00;69.20;;;;;;5038851;28;20249;-73
2021/06/04 08:10:55;;;;;;;5.28;1.75;;;19.20;69.00;;;;;;5047573;28;20576;-73
2021/06/04 08:13:22;;;;;;;1.83;1.75;;;19.40;68.90;;;;;;5049503;28;20690;-73
2021/06/04 08:16:03;;;;;;;1.73;1.63;;;19.60;68.60;;;;;;5045046;28;20240;-72
2021/06/04 08:18:32;;;;;;;1.92;1.85;;;19.90;68.20;;;;;;5047449;28;20616;-73
2021/06/04 08:21:00;;;;;;;1.48;1.48;;;20.20;67.30;;;;;;5041625;28;20743;-73
2021/06/04 08:23:32;;;;;;;2.17;1.50;;;20.60;66.80;;;;;;5045290;28;20184;-72
2021/06/04 08:25:58;;;;;;;2.30;1.77;;;20.80;65.80;;;;;;5048585;28;20198;-72
2021/06/04 08:28:27;;;;;;;2.22;1.88;;;21.10;64.90;;;;;;5037564;28;20602;-72
2021/06/04 08:30:53;;;;;;;4.93;1.92;;;21.30;64.30;;;;;;5039224;28;20739;-73
2021/06/04 08:33:24;;;;;;;1.67;1.67;;;21.50;64.10;;;;;;5051298;28;20569;-73
2021/06/04 08:35:51;;;;;;;1.85;1.50;;;21.70;62.60;;;;;;5044901;28;20216;-73
2021/06/04 08:38:17;;;;;;;1.80;1.70;;;21.90;63.70;;;;;;5049785;28;20180;-73
2021/06/04 08:40:43;;;;;;;1.67;1.67;;;22.00;63.00;;;;;;5060808;28;20185;-74
2021/06/04 08:43:30;;;;;;;1.95;1.85;;;22.10;62.10;;;;;;5046508;28;20184;-72
2021/06/04 08:46:32;;;;;;;2.00;1.83;;;22.20;61.40;;;;;;5048585;28;20692;-72
2021/06/04 08:49:27;;;;;;;1.40;1.40;;;22.40;61.60;;;;;;5046218;28;20226;-73
2021/06/04 08:52:12;;;;;;;1.58;1.48;;;22.60;60.50;;;;;;5045805;28;20191;-73
2021/06/04 08:54:52;;;;;;;1.67;1.67;;;22.80;60.80;;;;;;5052857;28;20202;-72
2021/06/04 08:57:39;;;;;;;1.40;1.40;;;22.90;60.60;;;;;;5046617;28;20183;-73
2021/06/04 09:00:18;;;;;;;1.63;1.30;;;23.00;59.20;;;;;;5043812;28;20187;-73
2021/06/04 09:03:21;;;;;;;2.13;1.92;;;23.00;59.40;;;;;;5046395;28;20212;-75
2021/06/04 09:06:06;;;;;;;2.67;1.98;;;23.10;58.40;;;;;;5016199;28;20204;-73
2021/06/04 09:08:34;;;;;;;1.83;1.83;;;23.30;58.60;;;;;;5032085;28;20261;-72
2021/06/04 09:11:34;;;;;;;2.20;1.73;;;23.50;59.60;;;;;;5016796;28;20746;-74
2021/06/04 09:14:00;;;;;;;1.45;1.45;;;23.70;58.80;;;;;;5015092;28;20654;-72
2021/06/04 09:16:53;;;;;;;1.73;1.63;;;23.90;57.90;;;;;;5023898;28;20196;-72
2021/06/04 09:19:53;;;;;;;1.52;1.52;;;24.00;58.10;;;;;;5026410;28;20188;-74
2021/06/04 09:22:20;;;;;;;3.28;1.40;;;24.20;58.20;;;;;;5000170;28;20197;-73
2021/06/04 09:24:49;;;;;;;1.67;1.67;;;24.30;58.70;;;;;;5027283;28;20703;-74
2021/06/04 09:27:34;;;;;;;2.30;1.83;;;24.40;57.50;;;;;;5023990;28;20248;-73
2021/06/04 09:30:06;;;;;;;1.85;1.75;;;24.60;58.40;;;;;;5022913;28;20274;-73
2021/06/04 09:32:32;;;;;;;2.30;2.20;;;24.70;58.40;;;;;;5027182;28;20231;-73
2021/06/04 09:35:10;;;;;;;1.60;1.60;;;24.70;58.00;;;;;;4998901;28;20201;-75
2021/06/04 09:37:38;;;;;;;2.00;1.77;;;24.60;55.70;;;;;;5021422;28;20227;-73
2021/06/04 09:40:30;;;;;;;1.70;1.70;;;24.40;55.90;;;;;;5016116;28;20967;-74
2021/06/04 09:43:14;;;;;;;1.20;1.20;;;24.00;56.00;;;;;;4978733;28;20828;-73
2021/06/04 09:45:52;;;;;;;3.30;1.98;;;23.80;57.70;;;;;;4987202;28;20200;-74
2021/06/04 09:48:32;;;;;;;2.28;1.80;;;23.80;58.40;;;;;;4986775;28;20312;-74
2021/06/04 09:51:22;;;;;;;2.38;1.90;;;23.80;58.40;;;;;;5000720;28;20216;-73
2021/06/04 09:53:48;;;;;;;2.05;1.23;;;23.90;57.40;;;;;;4984617;28;20360;-73
2021/06/04 09:56:43;;;;;;;1.35;1.35;;;24.00;58.00;;;;;;4984389;28;20236;-73
2021/06/04 09:59:14;;;;;;;1.27;1.27;;;24.00;58.50;;;;;;4982531;28;20209;-73
2021/06/04 10:01:49;;;;;;;2.92;1.60;;;23.80;57.30;;;;;;4983924;28;20751;-73
2021/06/04 10:04:29;;;;;;;1.38;1.38;;;23.70;56.10;;;;;;4983942;28;20197;-73
2021/06/04 10:07:16;;;;;;;1.35;1.35;;;23.70;57.00;;;;;;4984935;28;20217;-73
2021/06/04 10:09:46;;;;;;;1.90;1.73;;;23.80;57.70;;;;;;4987739;28;20252;-72
2021/06/04 10:12:29;;;;;;;2.80;1.38;;;24.00;57.90;;;;;;4988106;28;20192;-73
2021/06/04 10:15:02;;;;;;;1.52;1.42;;;24.30;57.20;;;;;;4986047;28;20205;-73
2021/06/04 10:20:33;;;;;;;1.42;1.42;;;24.50;55.50;;;;;;5027934;28;20192;-72
2021/06/04 10:23:22;;;;;;;1.25;1.25;;;24.50;56.10;;;;;;5049459;28;20211;-73
2021/06/04 10:25:56;;;;;;;1.30;1.30;;;24.50;55.10;;;;;;5049474;28;20184;-73
2021/06/04 10:28:40;;;;;;;1.38;1.38;;;24.50;54.50;;;;;;5048592;28;20290;-72
2021/06/04 10:31:21;;;;;;;1.23;1.23;;;24.60;55.00;;;;;;5048942;28;20189;-72
2021/06/04 10:34:14;;;;;;;3.33;1.45;;;24.90;56.10;;;;;;5049639;28;20567;-73
2021/06/04 10:36:45;;;;;;;1.35;1.35;;;25.10;54.80;;;;;;5048983;28;20183;-73
2021/06/04 10:39:36;;;;;;;8.88;1.65;;;25.30;55.60;;;;;;5050383;28;20188;-73
2021/06/04 10:42:17;;;;;;;1.80;1.70;;;25.40;54.20;;;;;;5041585;28;20176;-73
2021/06/04 10:45:11;;;;;;;2.60;1.27;;;25.40;54.40;;;;;;5039279;28;20194;-74
2021/06/04 10:47:39;;;;;;;1.30;1.30;;;25.40;54.10;;;;;;5048063;28;20182;-72
2021/06/04 10:50:16;;;;;;;2.00;1.20;;;25.40;54.30;;;;;;5050720;28;20211;-73
2021/06/04 10:53:00;;;;;;;0.98;0.98;;;25.50;55.10;;;;;;5062225;28;20179;-72
2021/06/04 10:55:48;;;;;;;1.20;1.10;;;25.70;54.80;;;;;;5047524;28;20621;-72
2021/06/04 10:58:28;;;;;;;1.85;1.85;;;25.90;53.80;;;;;;5048750;28;20286;-72
2021/06/04 11:01:00;;;;;;;2.60;1.33;;;26.00;55.80;;;;;;5049185;28;20237;-72
2021/06/04 11:03:52;;;;;;;4.13;1.40;;;26.00;55.70;;;;;;5049240;28;20230;-73
2021/06/04 11:06:33;;;;;;;1.55;1.00;;;26.00;55.20;;;;;;5041500;28;20951;-73
2021/06/04 11:09:23;;;;;;;0.93;0.93;;;25.90;53.60;;;;;;5048860;28;20230;-73
2021/06/04 11:12:01;;;;;;;1.30;1.20;;;25.80;54.90;;;;;;5036627;28;20188;-74
2021/06/04 11:14:35;;;;;;;0.82;0.82;;;25.80;54.60;;;;;;5048731;28;20191;-74
2021/06/04 11:17:18;;;;;;;3.60;1.15;;;25.90;57.00;;;;;;5047392;28;20194;-74
2021/06/04 11:19:47;;;;;;;1.23;1.10;;;26.20;56.80;;;;;;5047824;28;20183;-74
2021/06/04 11:22:26;;;;;;;1.83;1.05;;;26.40;53.90;;;;;;5048209;28;20199;-74
2021/06/04 11:25:16;;;;;;;1.25;1.23;;;26.50;54.50;;;;;;5048667;28;20638;-74
2021/06/04 11:27:45;;;;;;;1.55;1.20;;;26.70;54.10;;;;;;5052076;28;20628;-74
2021/06/04 11:30:20;;;;;;;2.08;1.52;;;26.90;54.60;;;;;;5048212;28;20208;-74
2021/06/04 11:33:00;;;;;;;1.13;1.13;;;27.00;55.00;;;;;;5048241;28;20183;-73
2021/06/04 11:35:30;;;;;;;2.05;1.27;;;27.20;52.80;;;;;;5040621;28;20262;-74
2021/06/04 11:38:17;;;;;;;1.10;1.10;;;27.40;53.60;;;;;;5049559;28;20176;-72
2021/06/04 11:40:51;;;;;;;1.33;1.25;;;27.40;54.60;;;;;;5048707;28;20210;-76
2021/06/04 11:43:27;;;;;;;1.85;1.38;;;27.30;54.10;;;;;;5049063;28;20164;-72
2021/06/04 11:46:12;;;;;;;1.67;1.10;;;27.10;54.50;;;;;;5044076;28;20266;-73
2021/06/04 11:48:59;;;;;;;1.60;1.50;;;27.00;54.30;;;;;;5041612;28;20219;-73
2021/06/04 11:51:30;;;;;;;1.25;1.15;;;26.90;55.90;;;;;;5055186;28;20857;-73
2021/06/04 11:54:24;;;;;;;1.20;1.20;;;26.80;54.90;;;;;;5050308;28;20733;-73
2021/06/04 11:57:08;;;;;;;1.20;1.20;;;26.80;53.40;;;;;;5045233;28;20184;-73
2021/06/04 11:59:46;;;;;;;1.25;1.25;;;26.80;53.10;;;;;;5043832;28;20218;-72
2021/06/04 12:02:53;;;;;;;1.25;1.25;;;27.00;53.70;;;;;;5048790;28;20687;-73
2021/06/04 12:05:19;;;;;;;1.17;1.17;;;27.90;52.50;;;;;;5052405;28;20203;-73
2021/06/04 12:07:46;;;;;;;1.30;1.30;;;28.80;52.90;;;;;;5049030;28;20180;-73
2021/06/04 12:10:14;;;;;;;1.45;1.35;;;29.50;51.60;;;;;;5053409;28;20219;-72
2021/06/04 12:13:26;;;;;;;1.10;0.93;;;30.50;49.60;;;;;;5054152;28;20187;-73
2021/06/04 12:15:52;;;;;;;2.35;1.10;;;31.50;48.30;;;;;;5048627;28;20284;-73
2021/06/04 12:18:46;;;;;;;1.15;1.15;;;32.10;47.90;;;;;;5051671;28;20187;-74
2021/06/04 12:21:37;;;;;;;1.00;1.00;;;32.50;46.50;;;;;;5047648;28;20237;-72
2021/06/04 12:24:19;;;;;;;1.00;1.00;;;32.30;45.10;;;;;;5047937;28;20211;-72
2021/06/04 12:26:52;;;;;;;1.83;1.15;;;31.70;47.80;;;;;;5049455;28;20179;-73
2021/06/04 12:29:24;;;;;;;1.75;1.20;;;30.90;49.20;;;;;;5040612;28;20326;-73
2021/06/04 12:32:03;;;;;;;1.33;1.05;;;30.30;50.60;;;;;;5055626;28;20187;-73
2021/06/04 12:34:32;;;;;;;1.30;1.30;;;29.90;50.40;;;;;;5054100;28;20258;-74
2021/06/04 12:37:22;;;;;;;1.30;1.30;;;29.70;51.00;;;;;;5053744;28;20179;-73
2021/06/04 12:40:19;;;;;;;3.33;1.50;;;29.60;50.60;;;;;;5045427;28;20176;-73
2021/06/04 12:42:57;;;;;;;0.90;0.90;;;29.70;49.60;;;;;;5050705;28;20684;-73
2021/06/04 12:45:30;;;;;;;1.45;1.45;;;29.60;53.00;;;;;;5048540;28;20241;-74
2021/06/04 12:48:20;;;;;;;1.40;1.40;;;29.50;51.40;;;;;;5037836;28;20178;-72
2021/06/04 12:51:06;;;;;;;2.55;1.70;;;29.30;52.20;;;;;;5047463;28;20632;-73
2021/06/04 12:53:57;;;;;;;2.45;1.50;;;29.00;50.90;;;;;;5052152;28;20171;-73
2021/06/04 12:56:26;;;;;;;1.52;1.40;;;28.70;52.50;;;;;;5023833;28;20200;-74
2021/06/04 12:59:08;;;;;;;1.50;1.40;;;28.30;52.30;;;;;;5024144;28;20204;-74
2021/06/04 13:01:53;;;;;;;2.33;1.60;;;27.90;51.80;;;;;;5024660;28;20598;-75
2021/06/04 13:04:34;;;;;;;4.20;1.70;;;27.40;54.30;;;;;;5023899;28;20196;-76
2021/06/04 13:07:02;;;;;;;1.73;1.73;;;27.10;55.10;;;;;;5023937;28;20673;-75
2021/06/04 13:09:40;;;;;;;1.50;1.40;;;26.80;55.40;;;;;;5025481;28;20262;-72
2021/06/04 13:12:18;;;;;;;1.80;1.67;;;26.40;55.70;;;;;;5018176;28;20204;-73
2021/06/04 13:14:47;;;;;;;1.30;1.30;;;26.00;55.70;;;;;;5023887;28;20257;-73
2021/06/04 13:17:28;;;;;;;1.65;1.65;;;25.60;56.70;;;;;;5023894;28;20203;-73
2021/06/04 13:20:18;;;;;;;1.60;1.50;;;25.40;57.10;;;;;;5023484;28;20196;-73
2021/06/04 13:22:46;;;;;;;1.55;1.40;;;25.10;56.80;;;;;;5023039;28;20283;-73
2021/06/04 13:25:25;;;;;;;1.63;1.52;;;24.90;58.00;;;;;;5019163;28;20748;-74
2021/06/04 13:28:10;;;;;;;2.00;1.67;;;24.70;58.30;;;;;;5024213;28;20199;-73